Time;durP1;ratioP1;P1;durP2;ratioP2;P2;SDS_P1;SDS_P2;PMS_P1;PMS_P2;Temp;Humidity;BMP_temperature;BMP_pressure;BME280_temperature;BME280_humidity;BME280_pressure;Samples;Min_cycle;Max_cycle;Signal;HPM_P1;HPM_P2
2021/05/27 00:02:25;;;;;;;6.77;6.10;;;13.20;99.90;;;;;;5044356;28;20445;-80
2021/05/27 00:04:53;;;;;;;6.47;5.87;;;13.20;99.90;;;;;;5043597;28;20460;-81
2021/05/27 00:07:20;;;;;;;7.17;5.90;;;13.20;99.90;;;;;;5043829;28;20452;-81
2021/05/27 00:09:46;;;;;;;6.13;5.50;;;13.20;99.90;;;;;;5045330;28;20515;-82
2021/05/27 00:12:13;;;;;;;7.33;6.70;;;13.20;99.90;;;;;;5028023;28;20453;-82
2021/05/27 00:14:40;;;;;;;7.20;5.87;;;13.20;99.90;;;;;;5043120;28;20524;-80
2021/05/27 00:17:10;;;;;;;8.57;6.87;;;13.20;99.90;;;;;;5027746;28;20466;-81
2021/05/27 00:19:37;;;;;;;13.53;5.43;;;13.20;99.90;;;;;;5031071;28;20556;-78
2021/05/27 00:22:04;;;;;;;8.33;6.10;;;13.20;99.90;;;;;;5044151;28;20460;-80
2021/05/27 00:24:31;;;;;;;7.00;5.40;;;13.20;99.90;;;;;;5046059;28;20908;-80
2021/05/27 00:26:57;;;;;;;8.53;6.67;;;13.20;99.90;;;;;;5045905;28;20529;-80
2021/05/27 00:29:24;;;;;;;6.10;5.50;;;13.20;99.90;;;;;;5045193;28;20463;-82
2021/05/27 00:31:51;;;;;;;7.73;6.37;;;13.20;99.90;;;;;;5045116;28;20463;-81
2021/05/27 00:34:18;;;;;;;8.40;6.40;;;13.20;99.90;;;;;;5043732;28;20476;-81
2021/05/27 00:36:45;;;;;;;7.40;6.20;;;13.10;99.90;;;;;;5043376;28;20456;-80
2021/05/27 00:39:12;;;;;;;5.97;5.33;;;13.10;99.90;;;;;;5029994;28;20448;-80
2021/05/27 00:41:38;;;;;;;7.43;6.73;;;13.10;99.90;;;;;;5042401;28;20461;-80
2021/05/27 00:44:19;;;;;;;6.43;5.83;;;13.10;99.90;;;;;;5043565;28;21027;-79
2021/05/27 00:46:46;;;;;;;6.33;5.70;;;13.10;99.90;;;;;;5046803;28;20453;-78
2021/05/27 00:49:13;;;;;;;10.10;6.10;;;13.10;99.90;;;;;;5046072;28;20498;-80
2021/05/27 00:51:40;;;;;;;8.13;6.07;;;13.10;99.90;;;;;;5050590;28;20778;-81
2021/05/27 00:54:07;;;;;;;8.60;6.20;;;13.10;99.90;;;;;;5052553;28;20464;-81
2021/05/27 00:56:34;;;;;;;8.43;7.57;;;13.10;99.90;;;;;;5053514;28;20501;-80
2021/05/27 00:59:01;;;;;;;6.80;6.10;;;13.10;99.90;;;;;;5055702;28;20444;-80
2021/05/27 01:01:28;;;;;;;11.67;6.80;;;13.10;99.90;;;;;;5054933;28;20451;-78
2021/05/27 01:03:55;;;;;;;6.77;6.17;;;13.10;99.90;;;;;;5055648;28;20499;-81
2021/05/27 01:06:21;;;;;;;8.13;7.33;;;13.10;99.90;;;;;;5039920;28;20450;-81
2021/05/27 01:08:48;;;;;;;6.80;6.10;;;13.10;99.90;;;;;;5052884;28;20448;-81
2021/05/27 01:11:17;;;;;;;8.17;6.87;;;13.10;99.90;;;;;;5074413;28;20514;-80
2021/05/27 01:13:46;;;;;;;8.77;6.60;;;13.10;99.90;;;;;;5074239;28;20511;-80
2021/05/27 01:16:19;;;;;;;12.17;7.50;;;13.00;99.90;;;;;;5072345;28;20475;-82
2021/05/27 01:18:46;;;;;;;7.13;6.43;;;13.00;99.90;;;;;;5049115;28;20432;-80
2021/05/27 01:21:13;;;;;;;10.77;6.77;;;13.00;99.90;;;;;;5046363;28;20546;-80
2021/05/27 01:23:40;;;;;;;8.27;6.70;;;13.00;99.90;;;;;;5068122;28;20466;-82
2021/05/27 01:26:09;;;;;;;10.30;7.67;;;13.10;99.90;;;;;;5061586;28;20444;-78
2021/05/27 01:28:37;;;;;;;8.87;7.23;;;13.10;99.90;;;;;;5054480;28;20432;-80
2021/05/27 01:31:06;;;;;;;13.63;7.03;;;13.00;99.90;;;;;;5055947;28;20448;-80
2021/05/27 01:33:33;;;;;;;8.30;7.47;;;13.00;99.90;;;;;;5055779;28;20468;-81
2021/05/27 01:36:00;;;;;;;8.10;7.30;;;13.00;99.90;;;;;;5074365;28;20547;-81
2021/05/27 01:38:32;;;;;;;9.03;7.13;;;13.00;99.90;;;;;;5075324;28;20535;-81
2021/05/27 01:41:01;;;;;;;9.07;7.77;;;13.00;99.90;;;;;;5076292;28;20471;-80
2021/05/27 01:43:28;;;;;;;9.40;7.80;;;13.00;99.90;;;;;;5074238;28;20459;-81
2021/05/27 01:45:55;;;;;;;8.00;7.20;;;13.00;99.90;;;;;;5058374;28;20451;-81
2021/05/27 01:48:22;;;;;;;7.80;7.03;;;12.90;99.90;;;;;;5071562;28;20451;-81
2021/05/27 01:50:49;;;;;;;6.93;5.93;;;12.90;99.90;;;;;;5071377;28;20453;-81
2021/05/27 01:53:17;;;;;;;7.60;6.77;;;12.90;99.90;;;;;;5051330;28;20448;-80
2021/05/27 01:55:47;;;;;;;8.47;7.57;;;12.90;99.90;;;;;;5057307;28;20488;-81
2021/05/27 01:58:14;;;;;;;8.57;7.30;;;12.90;99.90;;;;;;5061544;28;20420;-82
2021/05/27 02:00:42;;;;;;;11.37;7.20;;;12.90;99.90;;;;;;5069684;28;20447;-81
2021/05/27 02:03:09;;;;;;;9.77;6.87;;;12.90;99.90;;;;;;5065853;28;20437;-82
2021/05/27 02:05:36;;;;;;;10.97;7.00;;;13.00;99.90;;;;;;5064541;28;20495;-82
2021/05/27 02:08:03;;;;;;;8.53;7.17;;;13.00;99.90;;;;;;5065865;28;20442;-83
2021/05/27 02:10:30;;;;;;;9.03;8.00;;;13.00;99.90;;;;;;5062793;28;20535;-79
2021/05/27 02:12:57;;;;;;;7.33;6.70;;;12.90;99.90;;;;;;5062323;28;20440;-82
2021/05/27 02:15:24;;;;;;;11.37;6.90;;;12.90;99.90;;;;;;5046020;28;20477;-81
2021/05/27 02:17:50;;;;;;;10.00;7.40;;;12.90;99.90;;;;;;5052497;28;20452;-81
2021/05/27 02:20:17;;;;;;;8.00;7.30;;;12.90;99.90;;;;;;5049606;28;20421;-80
2021/05/27 02:22:44;;;;;;;12.33;6.73;;;12.90;99.90;;;;;;5048943;28;20503;-80
2021/05/27 02:25:12;;;;;;;9.10;7.20;;;12.90;99.90;;;;;;5046378;28;20479;-80
2021/05/27 02:27:38;;;;;;;10.03;7.73;;;12.90;99.90;;;;;;5047062;28;21585;-80
2021/05/27 02:30:06;;;;;;;10.60;7.17;;;12.90;99.90;;;;;;5046420;28;20452;-81
2021/05/27 02:32:33;;;;;;;7.63;6.80;;;12.90;99.90;;;;;;5030845;28;20444;-80
2021/05/27 02:35:00;;;;;;;6.90;6.20;;;12.90;99.90;;;;;;5028168;28;20499;-80
2021/05/27 02:37:26;;;;;;;12.63;7.47;;;12.90;99.90;;;;;;5029656;28;20464;-80
2021/05/27 02:39:53;;;;;;;12.23;7.43;;;12.90;99.90;;;;;;5043811;28;20455;-80
2021/05/27 02:42:20;;;;;;;9.20;7.33;;;12.80;99.90;;;;;;5044479;28;20544;-80
2021/05/27 02:44:47;;;;;;;9.80;7.80;;;12.80;99.90;;;;;;5043745;28;20468;-79
2021/05/27 02:47:14;;;;;;;9.70;7.70;;;12.80;99.90;;;;;;5044902;28;20452;-80
2021/05/27 02:49:41;;;;;;;8.87;7.90;;;12.80;99.90;;;;;;5029567;28;20449;-80
2021/05/27 02:52:08;;;;;;;8.33;7.50;;;12.80;99.90;;;;;;5046304;28;20456;-79
2021/05/27 02:54:35;;;;;;;10.30;7.67;;;12.80;99.90;;;;;;5045528;28;20661;-81
2021/05/27 02:57:02;;;;;;;10.80;7.17;;;12.80;99.90;;;;;;5031019;28;20455;-81
2021/05/27 02:59:28;;;;;;;11.83;7.87;;;12.90;99.90;;;;;;5043739;28;20456;-80
2021/05/27 03:01:55;;;;;;;9.60;8.27;;;12.90;99.90;;;;;;5045817;28;20969;-80
2021/05/27 03:04:21;;;;;;;8.80;7.90;;;12.90;99.90;;;;;;5046177;28;20562;-81
2021/05/27 03:06:48;;;;;;;9.13;8.07;;;12.90;99.90;;;;;;5048482;28;20460;-79
2021/05/27 03:09:15;;;;;;;9.70;7.77;;;12.90;99.90;;;;;;5049469;28;20467;-80
2021/05/27 03:11:42;;;;;;;9.00;7.53;;;12.90;99.90;;;;;;5034017;28;20466;-80
2021/05/27 03:14:09;;;;;;;10.57;7.40;;;12.80;99.90;;;;;;5047840;28;20483;-80
2021/05/27 03:16:36;;;;;;;9.00;7.40;;;12.80;99.90;;;;;;5050565;28;20476;-81
2021/05/27 03:19:03;;;;;;;10.13;7.57;;;12.80;99.90;;;;;;5034572;28;20444;-80
2021/05/27 03:21:29;;;;;;;9.43;8.43;;;12.80;99.90;;;;;;5046951;28;20456;-80
2021/05/27 03:23:56;;;;;;;8.13;7.30;;;12.80;99.90;;;;;;5044752;28;20981;-79
2021/05/27 03:26:23;;;;;;;7.77;7.07;;;12.80;99.90;;;;;;5044835;28;20437;-81
2021/05/27 03:28:49;;;;;;;11.10;8.10;;;12.80;99.90;;;;;;5045942;28;20456;-81
2021/05/27 03:31:17;;;;;;;9.90;8.90;;;12.80;99.90;;;;;;5044454;28;20458;-80
2021/05/27 03:33:43;;;;;;;9.40;8.07;;;12.80;99.90;;;;;;5045419;28;20452;-81
2021/05/27 03:36:10;;;;;;;10.20;7.80;;;12.80;99.90;;;;;;5045114;28;20845;-82
2021/05/27 03:38:37;;;;;;;8.23;7.43;;;12.80;99.90;;;;;;5049255;28;20456;-81
2021/05/27 03:41:03;;;;;;;11.50;8.17;;;12.80;99.90;;;;;;5060727;28;20451;-81
2021/05/27 03:43:30;;;;;;;12.17;8.20;;;12.80;99.90;;;;;;5065899;28;20449;-81
2021/05/27 03:45:58;;;;;;;8.37;7.57;;;12.80;99.90;;;;;;5065214;28;20455;-81
2021/05/27 03:48:25;;;;;;;12.73;7.67;;;12.80;99.90;;;;;;5061953;28;20464;-80
2021/05/27 03:50:52;;;;;;;9.67;8.67;;;12.80;99.90;;;;;;5049117;28;20467;-81
2021/05/27 03:53:19;;;;;;;10.23;9.23;;;12.70;99.90;;;;;;5047141;28;20456;-80
2021/05/27 03:55:45;;;;;;;9.37;8.27;;;12.70;99.90;;;;;;5029836;28;20511;-81
2021/05/27 04:00:57;;;;;;;10.20;9.03;;;12.70;99.90;;;;;;5045922;28;20453;-80
2021/05/27 04:03:25;;;;;;;8.63;7.73;;;12.70;99.90;;;;;;5047580;28;20448;-79
2021/05/27 04:08:36;;;;;;;10.13;9.03;;;12.70;99.90;;;;;;5045592;28;20440;-79
2021/05/27 04:11:03;;;;;;;8.83;7.93;;;12.70;99.90;;;;;;5042909;28;20470;-78
2021/05/27 04:13:30;;;;;;;8.50;7.70;;;12.60;99.90;;;;;;5044511;28;20461;-81
2021/05/27 04:15:57;;;;;;;8.00;7.20;;;12.60;99.90;;;;;;5041989;28;20472;-80
2021/05/27 04:18:25;;;;;;;9.50;7.90;;;12.60;99.90;;;;;;5044597;28;20475;-81
2021/05/27 04:20:58;;;;;;;8.70;7.80;;;12.60;99.90;;;;;;5044566;28;20448;-81
2021/05/27 04:23:40;;;;;;;10.17;8.47;;;12.60;99.90;;;;;;5043841;28;20543;-81
2021/05/27 04:26:10;;;;;;;9.30;8.30;;;12.60;99.90;;;;;;5028137;28;20452;-82
2021/05/27 04:28:37;;;;;;;9.40;8.43;;;12.70;99.90;;;;;;5044128;28;20451;-83
2021/05/27 04:31:09;;;;;;;8.23;7.43;;;12.70;99.90;;;;;;5036408;28;20823;-82
2021/05/27 04:33:43;;;;;;;10.50;7.90;;;12.70;99.90;;;;;;5044906;28;22050;-79
2021/05/27 04:36:14;;;;;;;8.50;7.60;;;12.70;99.90;;;;;;5045928;28;20461;-80
2021/05/27 04:38:42;;;;;;;9.70;8.00;;;12.70;99.90;;;;;;5045487;28;20469;-80
2021/05/27 04:41:10;;;;;;;9.70;7.77;;;12.70;99.90;;;;;;5045266;28;20459;-81
2021/05/27 04:43:40;;;;;;;10.43;9.30;;;12.70;99.90;;;;;;5046569;28;20440;-81
2021/05/27 04:46:08;;;;;;;8.70;7.80;;;12.70;99.90;;;;;;5026794;28;20452;-80
2021/05/27 04:48:36;;;;;;;9.37;8.20;;;12.70;99.90;;;;;;5044594;28;20452;-79
2021/05/27 04:51:03;;;;;;;9.60;8.70;;;12.80;99.90;;;;;;5046987;28;20444;-80
2021/05/27 04:53:30;;;;;;;9.83;8.80;;;12.80;99.90;;;;;;5045368;28;20454;-80
2021/05/27 04:55:58;;;;;;;8.80;7.90;;;12.70;99.90;;;;;;5042661;28;20491;-81
2021/05/27 04:58:25;;;;;;;12.50;11.30;;;12.70;99.90;;;;;;5028837;28;20452;-81
2021/05/27 05:00:52;;;;;;;10.40;9.33;;;12.80;99.90;;;;;;5046345;28;20469;-81
2021/05/27 05:03:19;;;;;;;10.13;8.90;;;12.80;99.90;;;;;;5048591;28;21059;-83
2021/05/27 05:05:46;;;;;;;10.50;9.40;;;12.80;99.90;;;;;;5048058;28;20463;-81
2021/05/27 05:08:13;;;;;;;10.23;8.50;;;12.80;99.90;;;;;;5046584;28;20484;-80
2021/05/27 05:10:44;;;;;;;10.57;9.47;;;12.80;99.90;;;;;;5044272;28;20444;-80
2021/05/27 05:13:12;;;;;;;11.00;8.97;;;12.80;99.90;;;;;;5049489;28;20448;-82
2021/05/27 05:15:41;;;;;;;10.30;9.30;;;12.90;99.90;;;;;;5051296;28;20496;-80
2021/05/27 05:18:10;;;;;;;13.67;9.57;;;12.80;99.90;;;;;;5049880;28;20440;-81
2021/05/27 05:20:42;;;;;;;11.87;9.60;;;12.80;99.90;;;;;;5046244;28;20456;-80
2021/05/27 05:23:10;;;;;;;10.87;9.13;;;12.90;99.90;;;;;;5052920;28;20444;-81
2021/05/27 05:25:39;;;;;;;10.40;9.40;;;12.90;99.90;;;;;;5066563;28;20486;-81
2021/05/27 05:28:07;;;;;;;10.67;9.57;;;12.90;99.90;;;;;;5070697;28;20454;-80
2021/05/27 05:30:35;;;;;;;11.60;10.50;;;12.80;99.90;;;;;;5061382;28;21257;-81
2021/05/27 05:33:02;;;;;;;10.37;9.27;;;12.90;99.90;;;;;;5052603;28;20527;-80
2021/05/27 05:35:29;;;;;;;12.40;10.63;;;12.90;99.90;;;;;;5034670;28;20487;-81
2021/05/27 05:37:56;;;;;;;11.17;10.10;;;12.90;99.90;;;;;;5041852;28;20460;-81
2021/05/27 05:40:25;;;;;;;12.33;10.53;;;13.00;99.90;;;;;;5055780;28;20445;-78
2021/05/27 05:42:52;;;;;;;11.13;9.37;;;12.90;99.90;;;;;;5050561;28;20451;-80
2021/05/27 05:45:20;;;;;;;11.30;10.30;;;12.90;99.90;;;;;;5049479;28;20467;-81
2021/05/27 05:47:49;;;;;;;11.90;10.70;;;12.90;99.90;;;;;;5051796;28;20448;-79
2021/05/27 05:53:04;;;;;;;12.37;9.93;;;12.80;99.90;;;;;;5054487;28;21563;-82
2021/05/27 05:55:31;;;;;;;13.53;10.10;;;12.80;99.90;;;;;;5037224;28;20483;-80
2021/05/27 05:57:59;;;;;;;13.70;12.33;;;12.80;99.90;;;;;;5054066;28;20527;-82
2021/05/27 06:00:25;;;;;;;13.43;10.03;;;12.80;99.90;;;;;;5037925;28;20448;-82
2021/05/27 06:02:52;;;;;;;13.17;10.93;;;12.90;99.90;;;;;;5052546;28;20484;-82
2021/05/27 06:05:19;;;;;;;12.70;10.40;;;12.80;99.90;;;;;;5050993;28;20518;-80
2021/05/27 06:07:45;;;;;;;12.10;10.40;;;12.80;99.90;;;;;;5057169;28;20455;-80
2021/05/27 06:10:13;;;;;;;11.23;10.17;;;12.90;99.90;;;;;;5057139;28;20987;-79
2021/05/27 06:12:40;;;;;;;11.57;10.37;;;12.90;99.90;;;;;;5052895;28;20432;-81
2021/05/27 06:15:08;;;;;;;12.67;11.10;;;12.90;99.90;;;;;;5050545;28;20521;-79
2021/05/27 06:17:35;;;;;;;15.47;10.87;;;12.80;99.90;;;;;;5036640;28;21885;-81
2021/05/27 06:20:03;;;;;;;14.30;10.37;;;12.80;99.90;;;;;;5036050;28;20444;-79
2021/05/27 06:22:34;;;;;;;12.40;11.10;;;12.80;99.90;;;;;;5039456;28;20453;-80
2021/05/27 06:25:01;;;;;;;11.10;9.33;;;12.80;99.90;;;;;;5051703;28;20472;-81
2021/05/27 06:27:28;;;;;;;12.67;9.97;;;12.80;99.90;;;;;;5063224;28;20463;-82
2021/05/27 06:29:55;;;;;;;10.63;9.53;;;12.80;99.90;;;;;;5067192;28;20491;-80
2021/05/27 06:32:22;;;;;;;12.67;10.10;;;12.90;99.90;;;;;;5068248;28;20464;-80
2021/05/27 06:34:50;;;;;;;10.13;8.83;;;12.90;99.90;;;;;;5047790;28;21465;-80
2021/05/27 06:37:17;;;;;;;10.07;9.07;;;12.90;99.90;;;;;;5066373;28;20544;-80
2021/05/27 06:39:44;;;;;;;12.90;9.97;;;12.90;99.90;;;;;;5060747;28;20452;-81
2021/05/27 06:42:13;;;;;;;14.73;9.90;;;12.90;99.90;;;;;;5053971;28;20452;-80
2021/05/27 06:44:42;;;;;;;11.70;10.13;;;12.80;99.90;;;;;;5056563;28;20547;-81
2021/05/27 06:47:08;;;;;;;12.90;9.77;;;12.80;99.90;;;;;;5041617;28;20543;-80
2021/05/27 06:49:35;;;;;;;9.97;8.87;;;12.80;99.90;;;;;;5063002;28;20563;-79
2021/05/27 06:52:02;;;;;;;12.27;8.90;;;12.80;99.90;;;;;;5054285;28;20444;-79
2021/05/27 06:54:30;;;;;;;13.73;10.10;;;12.80;99.90;;;;;;5052821;28;20472;-80
2021/05/27 06:56:57;;;;;;;13.23;9.77;;;12.80;99.90;;;;;;5052623;28;20476;-81
2021/05/27 06:59:24;;;;;;;12.17;9.77;;;12.80;99.90;;;;;;5054097;28;20444;-80
2021/05/27 07:01:51;;;;;;;15.90;9.07;;;12.80;99.90;;;;;;5038913;28;20500;-81
2021/05/27 07:04:18;;;;;;;12.10;9.10;;;12.90;99.90;;;;;;5051218;28;20482;-80
2021/05/27 07:06:44;;;;;;;10.93;9.83;;;12.80;99.90;;;;;;5050301;28;20464;-81
2021/05/27 07:09:11;;;;;;;10.60;9.40;;;12.90;99.90;;;;;;5047313;28;20463;-81
2021/05/27 07:11:38;;;;;;;10.50;9.33;;;12.90;99.90;;;;;;5049908;28;20832;-79
2021/05/27 07:14:05;;;;;;;14.73;10.37;;;12.90;99.90;;;;;;5046789;28;20484;-81
2021/05/27 07:16:32;;;;;;;10.10;9.07;;;13.00;99.90;;;;;;5050858;28;20476;-79
2021/05/27 07:19:00;;;;;;;10.30;9.20;;;13.00;99.90;;;;;;5046809;28;20506;-82
2021/05/27 07:21:26;;;;;;;11.00;9.80;;;13.00;99.90;;;;;;5045844;28;20453;-82
2021/05/27 07:23:53;;;;;;;10.00;8.43;;;13.10;99.90;;;;;;5045260;28;20472;-82
2021/05/27 07:26:20;;;;;;;12.30;10.30;;;13.00;99.90;;;;;;5043060;28;20476;-82
2021/05/27 07:28:47;;;;;;;12.03;10.83;;;13.00;99.90;;;;;;5049253;28;20475;-81
2021/05/27 07:31:14;;;;;;;11.37;10.03;;;13.00;99.90;;;;;;5029730;28;20456;-81
2021/05/27 07:33:41;;;;;;;11.30;10.20;;;13.10;99.90;;;;;;5046832;28;20507;-80
2021/05/27 07:36:07;;;;;;;11.67;10.47;;;13.10;99.90;;;;;;5043212;28;20476;-79
2021/05/27 07:38:34;;;;;;;18.43;11.10;;;13.20;99.90;;;;;;5050913;28;20464;-81
2021/05/27 07:41:01;;;;;;;12.47;11.27;;;13.20;99.90;;;;;;5054538;28;20479;-80
2021/05/27 07:43:28;;;;;;;12.20;10.87;;;13.20;99.90;;;;;;5053354;28;20484;-81
2021/05/27 07:45:55;;;;;;;12.83;10.30;;;13.20;99.90;;;;;;5032221;28;20448;-80
2021/05/27 07:48:21;;;;;;;11.93;10.40;;;13.20;99.90;;;;;;5046643;28;20467;-80
2021/05/27 07:50:48;;;;;;;11.20;10.10;;;13.20;99.90;;;;;;5048923;28;20505;-79
2021/05/27 07:53:19;;;;;;;11.20;10.07;;;13.30;99.90;;;;;;5050201;28;21323;-80
2021/05/27 07:55:46;;;;;;;14.20;10.00;;;13.30;99.90;;;;;;5047576;28;20468;-81
2021/05/27 07:58:13;;;;;;;13.50;10.47;;;13.30;99.90;;;;;;5052260;28;20436;-81
2021/05/27 08:00:41;;;;;;;18.23;10.90;;;13.30;99.90;;;;;;5044865;28;20451;-81
2021/05/27 08:03:07;;;;;;;12.10;11.00;;;13.40;99.90;;;;;;5052757;28;20448;-82
2021/05/27 08:05:35;;;;;;;9.40;8.53;;;13.30;99.90;;;;;;5061419;28;20483;-81
2021/05/27 08:08:02;;;;;;;13.80;10.67;;;13.30;99.90;;;;;;5043629;28;20463;-81
2021/05/27 08:10:32;;;;;;;10.60;9.60;;;13.20;99.90;;;;;;5051084;28;20459;-80
2021/05/27 08:12:58;;;;;;;14.10;10.10;;;13.10;99.90;;;;;;5050589;28;20463;-81
2021/05/27 08:15:25;;;;;;;13.60;9.93;;;13.20;99.90;;;;;;5048429;28;20488;-82
2021/05/27 08:17:52;;;;;;;10.90;9.63;;;13.20;99.90;;;;;;5032837;28;20484;-81
2021/05/27 08:20:19;;;;;;;12.67;9.67;;;13.20;99.90;;;;;;5057128;28;20474;-80
2021/05/27 08:22:46;;;;;;;11.93;8.83;;;13.20;99.90;;;;;;5053408;28;20508;-83
2021/05/27 08:25:12;;;;;;;12.27;8.53;;;13.40;99.90;;;;;;5054130;28;20464;-80
2021/05/27 08:27:39;;;;;;;11.63;9.47;;;13.30;99.90;;;;;;5037363;28;22663;-83
2021/05/27 08:30:07;;;;;;;9.93;7.80;;;13.20;99.90;;;;;;5050012;28;20490;-80
2021/05/27 08:32:34;;;;;;;13.40;8.27;;;13.20;99.90;;;;;;5047750;28;20460;-81
2021/05/27 08:35:03;;;;;;;14.20;8.73;;;13.20;99.90;;;;;;5048761;28;20468;-80
2021/05/27 08:37:30;;;;;;;9.63;7.27;;;13.20;99.90;;;;;;5045244;28;20491;-82
2021/05/27 08:39:56;;;;;;;10.17;8.27;;;13.20;99.90;;;;;;5043222;28;21289;-82
2021/05/27 08:42:26;;;;;;;9.90;8.00;;;13.20;99.90;;;;;;5048352;28;20440;-80
2021/05/27 08:44:56;;;;;;;10.10;8.63;;;13.20;99.90;;;;;;5046524;28;20528;-80
2021/05/27 08:47:23;;;;;;;11.03;8.30;;;13.30;99.90;;;;;;5050517;28;20938;-81
2021/05/27 08:49:51;;;;;;;11.20;8.97;;;13.20;99.90;;;;;;5034657;28;20571;-82
2021/05/27 08:52:17;;;;;;;11.33;8.10;;;13.20;99.90;;;;;;5051122;28;20520;-80
2021/05/27 08:54:44;;;;;;;11.73;7.63;;;13.20;99.90;;;;;;5035499;28;20484;-81
2021/05/27 08:57:12;;;;;;;9.77;7.70;;;13.30;99.90;;;;;;4697312;28;9999650;-80
2021/05/27 08:59:39;;;;;;;14.50;8.50;;;13.40;99.90;;;;;;5051085;28;20933;-83
2021/05/27 09:02:08;;;;;;;14.20;7.43;;;13.40;99.90;;;;;;5055668;28;20452;-80
2021/05/27 09:04:36;;;;;;;8.60;6.43;;;13.40;99.90;;;;;;5063383;28;20492;-82
2021/05/27 09:07:03;;;;;;;7.10;6.03;;;13.30;99.90;;;;;;5057334;28;20547;-80
2021/05/27 09:12:55;;;;;;;6.83;6.23;;;13.40;99.90;;;;;;5119322;22;21839;-80
2021/05/27 09:15:23;;;;;;;8.13;6.30;;;13.40;99.90;;;;;;5069613;28;20468;-79
2021/05/27 09:17:54;;;;;;;7.93;5.80;;;13.50;99.90;;;;;;5062371;28;20476;-81
2021/05/27 09:20:28;;;;;;;7.53;6.57;;;13.50;99.90;;;;;;5057605;28;20444;-80
2021/05/27 09:23:11;;;;;;;9.70;6.80;;;13.50;99.90;;;;;;5047264;28;20451;-81
2021/05/27 09:25:39;;;;;;;8.60;6.50;;;13.50;99.90;;;;;;5030646;28;20448;-80
2021/05/27 09:28:08;;;;;;;9.73;6.50;;;13.40;99.90;;;;;;5031814;28;20556;-81
2021/05/27 09:30:48;;;;;;;10.50;8.00;;;13.40;99.90;;;;;;5033068;28;20470;-80
2021/05/27 09:33:16;;;;;;;7.13;6.43;;;13.40;99.90;;;;;;5046564;28;20455;-81
2021/05/27 09:35:44;;;;;;;7.90;6.87;;;13.40;99.90;;;;;;5043845;28;20484;-79
2021/05/27 09:38:13;;;;;;;6.10;5.30;;;13.40;99.90;;;;;;5030674;28;20476;-82
2021/05/27 09:40:46;;;;;;;6.83;6.17;;;13.40;99.90;;;;;;5029069;28;20448;-80
2021/05/27 09:43:21;;;;;;;7.20;5.43;;;13.30;99.90;;;;;;5047618;28;20452;-80
2021/05/27 09:46:04;;;;;;;6.20;5.07;;;13.30;99.90;;;;;;5043013;28;20491;-81
2021/05/27 09:48:31;;;;;;;10.50;5.50;;;13.20;99.90;;;;;;5045442;28;20444;-81
2021/05/27 09:51:00;;;;;;;5.10;4.53;;;13.30;99.90;;;;;;5044841;28;20822;-80
2021/05/27 09:53:32;;;;;;;7.37;6.00;;;13.30;99.90;;;;;;5044644;28;20466;-81
2021/05/27 09:56:01;;;;;;;5.97;5.27;;;13.40;99.90;;;;;;5044079;28;20471;-83
2021/05/27 09:58:28;;;;;;;7.73;5.87;;;13.30;99.90;;;;;;5029226;28;20488;-81
2021/05/27 10:00:55;;;;;;;6.53;4.97;;;13.30;99.90;;;;;;5045676;28;20502;-80
2021/05/27 10:03:29;;;;;;;5.67;4.57;;;13.30;99.90;;;;;;5028535;28;20448;-79
2021/05/27 10:05:58;;;;;;;8.33;4.87;;;13.20;99.90;;;;;;5024170;28;20467;-80
2021/05/27 10:08:25;;;;;;;5.87;4.23;;;13.20;99.90;;;;;;5042809;28;20456;-81
2021/05/27 10:11:05;;;;;;;6.60;4.87;;;13.20;99.90;;;;;;5026630;28;20467;-79
2021/05/27 10:13:33;;;;;;;5.10;4.60;;;13.20;99.90;;;;;;5045523;28;20494;-79
2021/05/27 10:16:02;;;;;;;7.37;4.80;;;13.20;99.90;;;;;;5026896;28;20452;-80
2021/05/27 10:18:29;;;;;;;6.03;4.60;;;13.30;99.90;;;;;;5043500;28;20492;-81
2021/05/27 10:21:00;;;;;;;8.20;5.30;;;13.30;99.90;;;;;;5044015;28;20455;-81
2021/05/27 10:23:27;;;;;;;4.83;3.93;;;13.30;99.90;;;;;;5043135;28;20896;-83
2021/05/27 10:25:56;;;;;;;6.83;5.17;;;13.20;99.90;;;;;;5044470;28;20468;-81
2021/05/27 10:28:24;;;;;;;6.90;5.30;;;13.30;99.90;;;;;;5050656;28;20448;-84
2021/05/27 10:30:52;;;;;;;9.80;5.43;;;13.20;99.90;;;;;;5051497;28;20449;-83
2021/05/27 10:33:20;;;;;;;8.70;6.70;;;13.20;99.90;;;;;;5043757;28;20456;-82
2021/05/27 10:36:00;;;;;;;7.57;4.80;;;13.30;99.90;;;;;;5042742;28;20567;-81
2021/05/27 10:38:42;;;;;;;6.90;4.77;;;13.20;99.90;;;;;;5042556;28;20476;-81
2021/05/27 10:41:29;;;;;;;7.37;5.03;;;13.30;99.90;;;;;;5043629;28;20476;-81
2021/05/27 10:43:59;;;;;;;8.30;4.60;;;13.30;99.90;;;;;;5046482;28;21513;-80
2021/05/27 10:46:27;;;;;;;9.43;5.97;;;13.20;99.90;;;;;;5026264;28;20554;-80
2021/05/27 10:48:54;;;;;;;5.40;4.83;;;13.30;99.90;;;;;;5046506;28;20448;-81
2021/05/27 10:51:34;;;;;;;5.60;5.00;;;13.30;99.90;;;;;;5029141;28;20453;-79
2021/05/27 10:54:06;;;;;;;9.40;5.40;;;13.30;99.90;;;;;;5046758;28;20464;-79
2021/05/27 10:56:35;;;;;;;6.90;6.10;;;13.40;99.90;;;;;;5047833;28;20470;-81
2021/05/27 10:59:07;;;;;;;5.43;4.90;;;13.40;99.90;;;;;;5053097;28;20525;-80
2021/05/27 11:01:35;;;;;;;9.83;6.00;;;13.40;99.90;;;;;;5044038;28;20535;-79
2021/05/27 11:04:02;;;;;;;6.90;5.47;;;13.40;99.90;;;;;;5060669;28;20468;-79
2021/05/27 11:06:32;;;;;;;7.20;5.30;;;13.40;99.90;;;;;;5068645;28;20457;-80
2021/05/27 11:09:13;;;;;;;7.63;5.50;;;13.40;99.90;;;;;;5072512;28;20475;-81
2021/05/27 11:12:03;;;;;;;5.47;4.97;;;13.30;99.90;;;;;;5072014;28;20719;-82
2021/05/27 11:14:50;;;;;;;10.33;5.87;;;13.40;99.90;;;;;;5071460;28;21789;-81
2021/05/27 11:17:19;;;;;;;11.00;5.43;;;13.30;99.90;;;;;;5071456;28;20500;-83
2021/05/27 11:20:03;;;;;;;8.33;5.30;;;13.30;99.90;;;;;;5067579;28;20472;-82
2021/05/27 11:22:36;;;;;;;8.10;5.40;;;13.30;99.90;;;;;;5058057;28;20473;-79
2021/05/27 11:25:15;;;;;;;9.13;5.50;;;13.30;99.90;;;;;;5055027;28;20476;-80
2021/05/27 11:27:50;;;;;;;8.63;5.70;;;13.20;99.90;;;;;;5061943;28;20459;-82
2021/05/27 11:30:40;;;;;;;10.30;6.10;;;13.20;99.90;;;;;;5060879;28;20455;-81
2021/05/27 11:33:13;;;;;;;9.20;5.50;;;13.20;99.90;;;;;;5059669;28;20922;-78
2021/05/27 11:35:40;;;;;;;8.50;6.30;;;13.20;99.90;;;;;;5054180;28;20524;-80
2021/05/27 11:38:26;;;;;;;10.80;7.83;;;13.20;99.90;;;;;;5056318;28;20459;-83
2021/05/27 11:40:59;;;;;;;6.63;5.60;;;13.30;99.90;;;;;;5073428;28;20436;-81
2021/05/27 11:43:33;;;;;;;7.53;5.90;;;13.30;99.90;;;;;;5072843;28;20464;-81
2021/05/27 11:46:05;;;;;;;6.37;5.60;;;13.40;99.90;;;;;;5053688;28;20432;-80
2021/05/27 11:48:39;;;;;;;5.87;4.93;;;13.30;99.90;;;;;;5070937;28;20480;-79
2021/05/27 11:51:14;;;;;;;8.40;5.00;;;13.30;99.90;;;;;;5054305;28;20578;-81
2021/05/27 11:53:48;;;;;;;7.20;5.57;;;13.40;99.90;;;;;;5069302;28;20447;-81
2021/05/27 11:56:43;;;;;;;6.37;5.57;;;13.40;99.90;;;;;;5052475;28;20455;-81
2021/05/27 11:59:28;;;;;;;6.37;5.33;;;13.40;99.90;;;;;;5051569;28;20463;-81
2021/05/27 12:02:03;;;;;;;6.60;5.63;;;13.50;99.90;;;;;;5042275;28;21154;-80
2021/05/27 12:04:31;;;;;;;10.37;5.87;;;13.40;99.90;;;;;;5027191;28;20502;-82
2021/05/27 12:07:06;;;;;;;7.50;5.90;;;13.40;99.90;;;;;;5047349;28;20483;-80
2021/05/27 12:09:35;;;;;;;7.73;6.40;;;13.40;99.90;;;;;;5043340;28;20452;-80
2021/05/27 12:12:17;;;;;;;6.07;5.33;;;13.30;99.90;;;;;;5042580;28;20483;-80
2021/05/27 12:14:59;;;;;;;9.13;6.37;;;13.30;99.90;;;;;;5041043;28;20475;-82
2021/05/27 12:17:33;;;;;;;8.77;6.87;;;13.20;99.90;;;;;;5041838;28;20462;-80
2021/05/27 12:20:04;;;;;;;10.80;6.43;;;13.20;99.90;;;;;;5040670;28;20487;-80
2021/05/27 12:22:59;;;;;;;9.23;5.67;;;13.20;99.90;;;;;;5040875;28;20463;-80
2021/05/27 12:25:35;;;;;;;10.63;6.40;;;13.30;99.90;;;;;;5040288;28;21001;-81
2021/05/27 12:28:12;;;;;;;9.50;5.50;;;13.30;99.90;;;;;;5023638;28;20466;-79
2021/05/27 12:30:43;;;;;;;10.90;6.80;;;13.30;99.90;;;;;;5042572;28;20455;-81
2021/05/27 12:33:24;;;;;;;7.67;6.90;;;13.40;99.90;;;;;;5026122;28;20437;-82
2021/05/27 12:35:52;;;;;;;11.53;7.80;;;13.40;99.90;;;;;;5023754;28;20464;-80
2021/05/27 12:38:24;;;;;;;9.33;6.93;;;13.80;99.90;;;;;;5039819;28;20499;-79
2021/05/27 12:41:10;;;;;;;9.57;7.87;;;14.00;99.90;;;;;;5042320;28;20462;-80
2021/05/27 12:43:47;;;;;;;7.90;7.10;;;14.00;99.90;;;;;;5016431;28;20452;-81
2021/05/27 12:46:16;;;;;;;11.90;7.87;;;13.90;99.90;;;;;;5036029;28;20527;-82
2021/05/27 12:48:57;;;;;;;9.83;8.20;;;14.00;99.90;;;;;;5063780;28;20445;-82
2021/05/27 12:51:36;;;;;;;11.27;8.20;;;13.90;99.90;;;;;;5058344;28;20478;-80
2021/05/27 12:54:04;;;;;;;8.83;7.93;;;14.00;99.90;;;;;;5052689;28;20464;-82
2021/05/27 12:56:31;;;;;;;12.67;9.17;;;14.00;99.90;;;;;;5065998;28;20508;-82
2021/05/27 12:59:05;;;;;;;9.17;8.27;;;14.00;99.90;;;;;;5069321;28;20461;-82
2021/05/27 13:01:34;;;;;;;13.30;8.60;;;14.00;99.90;;;;;;5056386;28;20461;-81
2021/05/27 13:04:06;;;;;;;10.20;7.17;;;14.00;99.90;;;;;;5048105;28;20472;-80